sensor_id;sensor_type;location;lat;lon;timestamp;P1;durP1;ratioP1;P2;durP2;ratioP2
72406;SDS011;60396;47.550;18.828;2024-03-07T00:00:20;11.88;;;5.45;;
72406;SDS011;60396;47.550;18.828;2024-03-07T00:02:50;11.23;;;5.20;;
72406;SDS011;60396;47.550;18.828;2024-03-07T00:05:20;12.57;;;5.90;;
72406;SDS011;60396;47.550;18.828;2024-03-07T00:07:53;10.98;;;5.35;;
72406;SDS011;60396;47.550;18.828;2024-03-07T00:10:21;13.82;;;6.12;;
72406;SDS011;60396;47.550;18.828;2024-03-07T00:12:50;14.87;;;5.47;;
72406;SDS011;60396;47.550;18.828;2024-03-07T00:15:18;13.10;;;5.68;;
72406;SDS011;60396;47.550;18.828;2024-03-07T00:17:46;11.70;;;5.40;;
72406;SDS011;60396;47.550;18.828;2024-03-07T00:20:14;13.20;;;5.80;;
72406;SDS011;60396;47.550;18.828;2024-03-07T00:22:43;14.15;;;6.47;;
72406;SDS011;60396;47.550;18.828;2024-03-07T00:25:11;14.02;;;5.75;;
72406;SDS011;60396;47.550;18.828;2024-03-07T00:27:42;13.52;;;5.80;;
72406;SDS011;60396;47.550;18.828;2024-03-07T00:30:13;16.03;;;5.37;;
72406;SDS011;60396;47.550;18.828;2024-03-07T00:32:41;13.48;;;5.60;;
72406;SDS011;60396;47.550;18.828;2024-03-07T00:35:09;13.10;;;5.90;;
72406;SDS011;60396;47.550;18.828;2024-03-07T00:37:37;14.05;;;5.85;;
72406;SDS011;60396;47.550;18.828;2024-03-07T00:40:05;13.93;;;5.68;;
72406;SDS011;60396;47.550;18.828;2024-03-07T00:42:33;11.80;;;5.47;;
72406;SDS011;60396;47.550;18.828;2024-03-07T00:45:02;13.50;;;5.70;;
72406;SDS011;60396;47.550;18.828;2024-03-07T00:47:30;12.40;;;5.80;;
72406;SDS011;60396;47.550;18.828;2024-03-07T00:49:59;12.88;;;5.28;;
72406;SDS011;60396;47.550;18.828;2024-03-07T00:52:28;11.85;;;5.50;;
72406;SDS011;60396;47.550;18.828;2024-03-07T00:54:55;12.67;;;6.10;;
72406;SDS011;60396;47.550;18.828;2024-03-07T00:57:23;12.57;;;5.87;;
72406;SDS011;60396;47.550;18.828;2024-03-07T00:59:51;14.32;;;6.65;;
72406;SDS011;60396;47.550;18.828;2024-03-07T01:02:19;15.32;;;7.18;;
72406;SDS011;60396;47.550;18.828;2024-03-07T01:04:47;16.15;;;6.82;;
72406;SDS011;60396;47.550;18.828;2024-03-07T01:07:16;16.23;;;7.30;;
72406;SDS011;60396;47.550;18.828;2024-03-07T01:09:43;17.83;;;7.57;;
72406;SDS011;60396;47.550;18.828;2024-03-07T01:12:11;17.52;;;8.68;;
72406;SDS011;60396;47.550;18.828;2024-03-07T01:14:39;17.05;;;8.40;;
72406;SDS011;60396;47.550;18.828;2024-03-07T01:17:07;18.75;;;8.55;;
72406;SDS011;60396;47.550;18.828;2024-03-07T01:19:35;18.10;;;8.07;;
72406;SDS011;60396;47.550;18.828;2024-03-07T01:22:03;15.75;;;7.32;;
72406;SDS011;60396;47.550;18.828;2024-03-07T01:24:33;16.65;;;8.70;;
72406;SDS011;60396;47.550;18.828;2024-03-07T01:27:01;16.37;;;8.43;;
72406;SDS011;60396;47.550;18.828;2024-03-07T01:29:29;17.45;;;9.02;;
72406;SDS011;60396;47.550;18.828;2024-03-07T01:31:57;15.90;;;8.27;;
72406;SDS011;60396;47.550;18.828;2024-03-07T01:34:24;18.80;;;8.07;;
72406;SDS011;60396;47.550;18.828;2024-03-07T01:36:52;18.12;;;8.30;;
72406;SDS011;60396;47.550;18.828;2024-03-07T01:39:20;17.60;;;8.77;;
72406;SDS011;60396;47.550;18.828;2024-03-07T01:41:48;18.95;;;10.20;;
72406;SDS011;60396;47.550;18.828;2024-03-07T01:44:16;17.60;;;8.93;;
72406;SDS011;60396;47.550;18.828;2024-03-07T01:46:44;20.52;;;9.15;;
72406;SDS011;60396;47.550;18.828;2024-03-07T01:49:12;21.23;;;9.55;;
72406;SDS011;60396;47.550;18.828;2024-03-07T01:51:40;21.85;;;10.38;;
72406;SDS011;60396;47.550;18.828;2024-03-07T01:54:08;17.70;;;8.57;;
72406;SDS011;60396;47.550;18.828;2024-03-07T01:56:36;19.50;;;9.77;;
72406;SDS011;60396;47.550;18.828;2024-03-07T01:59:04;19.12;;;9.90;;
72406;SDS011;60396;47.550;18.828;2024-03-07T02:01:32;19.52;;;9.73;;
72406;SDS011;60396;47.550;18.828;2024-03-07T02:04:01;21.50;;;11.10;;
72406;SDS011;60396;47.550;18.828;2024-03-07T02:06:29;19.33;;;9.23;;
72406;SDS011;60396;47.550;18.828;2024-03-07T02:08:56;18.40;;;8.50;;
72406;SDS011;60396;47.550;18.828;2024-03-07T02:11:25;17.77;;;8.93;;
72406;SDS011;60396;47.550;18.828;2024-03-07T02:13:53;17.73;;;9.68;;
72406;SDS011;60396;47.550;18.828;2024-03-07T02:16:20;19.42;;;8.95;;
72406;SDS011;60396;47.550;18.828;2024-03-07T02:18:48;17.80;;;8.75;;
72406;SDS011;60396;47.550;18.828;2024-03-07T02:21:17;19.70;;;8.10;;
72406;SDS011;60396;47.550;18.828;2024-03-07T02:23:45;16.65;;;7.70;;
72406;SDS011;60396;47.550;18.828;2024-03-07T02:26:13;14.57;;;7.32;;
72406;SDS011;60396;47.550;18.828;2024-03-07T02:28:41;15.52;;;7.78;;
72406;SDS011;60396;47.550;18.828;2024-03-07T02:31:09;14.55;;;6.72;;
72406;SDS011;60396;47.550;18.828;2024-03-07T02:33:37;14.50;;;7.03;;
72406;SDS011;60396;47.550;18.828;2024-03-07T02:36:05;17.83;;;7.87;;
72406;SDS011;60396;47.550;18.828;2024-03-07T02:38:32;14.98;;;7.20;;
72406;SDS011;60396;47.550;18.828;2024-03-07T02:41:02;14.73;;;7.68;;
72406;SDS011;60396;47.550;18.828;2024-03-07T02:43:30;18.02;;;8.68;;
72406;SDS011;60396;47.550;18.828;2024-03-07T02:45:57;22.20;;;8.90;;
72406;SDS011;60396;47.550;18.828;2024-03-07T02:48:25;21.55;;;9.20;;
72406;SDS011;60396;47.550;18.828;2024-03-07T02:50:53;19.37;;;9.63;;
72406;SDS011;60396;47.550;18.828;2024-03-07T02:53:21;17.15;;;8.95;;
72406;SDS011;60396;47.550;18.828;2024-03-07T02:55:49;19.73;;;8.65;;
72406;SDS011;60396;47.550;18.828;2024-03-07T02:58:17;19.83;;;9.23;;
72406;SDS011;60396;47.550;18.828;2024-03-07T03:00:44;17.58;;;7.90;;
72406;SDS011;60396;47.550;18.828;2024-03-07T03:03:12;19.62;;;8.70;;
72406;SDS011;60396;47.550;18.828;2024-03-07T03:05:40;18.15;;;8.70;;
72406;SDS011;60396;47.550;18.828;2024-03-07T03:08:08;18.37;;;9.75;;
72406;SDS011;60396;47.550;18.828;2024-03-07T03:10:36;22.13;;;10.20;;
72406;SDS011;60396;47.550;18.828;2024-03-07T03:13:03;21.87;;;10.57;;
72406;SDS011;60396;47.550;18.828;2024-03-07T03:15:31;21.75;;;10.43;;
72406;SDS011;60396;47.550;18.828;2024-03-07T03:17:59;22.00;;;9.98;;
72406;SDS011;60396;47.550;18.828;2024-03-07T03:20:27;17.08;;;8.75;;
72406;SDS011;60396;47.550;18.828;2024-03-07T03:23:03;17.77;;;8.70;;
72406;SDS011;60396;47.550;18.828;2024-03-07T03:25:34;17.05;;;8.88;;
72406;SDS011;60396;47.550;18.828;2024-03-07T03:28:02;18.65;;;8.00;;
72406;SDS011;60396;47.550;18.828;2024-03-07T03:30:31;17.00;;;8.18;;
72406;SDS011;60396;47.550;18.828;2024-03-07T03:33:00;16.85;;;7.80;;
72406;SDS011;60396;47.550;18.828;2024-03-07T03:35:28;15.47;;;7.57;;
72406;SDS011;60396;47.550;18.828;2024-03-07T03:37:56;16.67;;;8.13;;
72406;SDS011;60396;47.550;18.828;2024-03-07T03:40:23;13.80;;;6.18;;
72406;SDS011;60396;47.550;18.828;2024-03-07T03:42:51;16.10;;;6.50;;
72406;SDS011;60396;47.550;18.828;2024-03-07T03:45:19;14.48;;;7.32;;
72406;SDS011;60396;47.550;18.828;2024-03-07T03:47:47;16.83;;;6.97;;
72406;SDS011;60396;47.550;18.828;2024-03-07T03:50:15;13.30;;;6.70;;
72406;SDS011;60396;47.550;18.828;2024-03-07T03:52:43;12.75;;;5.97;;
72406;SDS011;60396;47.550;18.828;2024-03-07T03:55:11;13.68;;;6.20;;
72406;SDS011;60396;47.550;18.828;2024-03-07T03:57:40;13.38;;;6.40;;
72406;SDS011;60396;47.550;18.828;2024-03-07T04:00:10;15.70;;;7.30;;
72406;SDS011;60396;47.550;18.828;2024-03-07T04:02:44;13.48;;;6.35;;
72406;SDS011;60396;47.550;18.828;2024-03-07T04:05:17;21.12;;;8.93;;
72406;SDS011;60396;47.550;18.828;2024-03-07T04:07:47;22.45;;;9.38;;
72406;SDS011;60396;47.550;18.828;2024-03-07T04:10:15;24.98;;;10.00;;
72406;SDS011;60396;47.550;18.828;2024-03-07T04:12:44;23.07;;;10.00;;
72406;SDS011;60396;47.550;18.828;2024-03-07T04:15:14;23.87;;;10.73;;
72406;SDS011;60396;47.550;18.828;2024-03-07T04:17:46;22.17;;;9.88;;
72406;SDS011;60396;47.550;18.828;2024-03-07T04:20:16;20.80;;;9.52;;
72406;SDS011;60396;47.550;18.828;2024-03-07T04:22:47;20.58;;;9.30;;
72406;SDS011;60396;47.550;18.828;2024-03-07T04:25:17;19.17;;;9.30;;
72406;SDS011;60396;47.550;18.828;2024-03-07T04:27:45;20.50;;;9.45;;
72406;SDS011;60396;47.550;18.828;2024-03-07T04:30:13;22.13;;;9.77;;
72406;SDS011;60396;47.550;18.828;2024-03-07T04:32:44;20.15;;;9.90;;
72406;SDS011;60396;47.550;18.828;2024-03-07T04:35:12;19.80;;;9.88;;
72406;SDS011;60396;47.550;18.828;2024-03-07T04:37:45;21.80;;;10.23;;
72406;SDS011;60396;47.550;18.828;2024-03-07T04:40:13;22.48;;;10.88;;
72406;SDS011;60396;47.550;18.828;2024-03-07T04:42:46;20.52;;;10.15;;
72406;SDS011;60396;47.550;18.828;2024-03-07T04:45:18;22.85;;;10.73;;
72406;SDS011;60396;47.550;18.828;2024-03-07T04:47:47;22.42;;;10.57;;
72406;SDS011;60396;47.550;18.828;2024-03-07T04:50:16;21.13;;;11.03;;
72406;SDS011;60396;47.550;18.828;2024-03-07T04:52:47;21.75;;;10.68;;
72406;SDS011;60396;47.550;18.828;2024-03-07T04:55:17;22.90;;;11.00;;
72406;SDS011;60396;47.550;18.828;2024-03-07T04:57:45;23.17;;;11.20;;
72406;SDS011;60396;47.550;18.828;2024-03-07T05:00:14;21.48;;;11.12;;
72406;SDS011;60396;47.550;18.828;2024-03-07T05:02:45;22.93;;;10.67;;
72406;SDS011;60396;47.550;18.828;2024-03-07T05:05:15;18.80;;;9.30;;
72406;SDS011;60396;47.550;18.828;2024-03-07T05:07:51;17.48;;;8.80;;
72406;SDS011;60396;47.550;18.828;2024-03-07T05:10:20;20.05;;;8.80;;
72406;SDS011;60396;47.550;18.828;2024-03-07T05:12:48;17.85;;;8.27;;
72406;SDS011;60396;47.550;18.828;2024-03-07T05:15:16;17.03;;;8.00;;
72406;SDS011;60396;47.550;18.828;2024-03-07T05:17:45;17.00;;;8.13;;
72406;SDS011;60396;47.550;18.828;2024-03-07T05:20:13;16.92;;;8.60;;
72406;SDS011;60396;47.550;18.828;2024-03-07T05:22:41;19.45;;;8.35;;
72406;SDS011;60396;47.550;18.828;2024-03-07T05:25:19;19.65;;;8.38;;
72406;SDS011;60396;47.550;18.828;2024-03-07T05:27:47;17.13;;;8.30;;
72406;SDS011;60396;47.550;18.828;2024-03-07T05:30:18;19.25;;;8.70;;
72406;SDS011;60396;47.550;18.828;2024-03-07T05:32:46;16.42;;;8.75;;
72406;SDS011;60396;47.550;18.828;2024-03-07T05:35:15;18.83;;;9.27;;
72406;SDS011;60396;47.550;18.828;2024-03-07T05:37:47;17.77;;;9.13;;
72406;SDS011;60396;47.550;18.828;2024-03-07T05:40:15;17.50;;;8.40;;
72406;SDS011;60396;47.550;18.828;2024-03-07T05:42:42;17.45;;;7.97;;
72406;SDS011;60396;47.550;18.828;2024-03-07T05:45:10;21.12;;;9.43;;
72406;SDS011;60396;47.550;18.828;2024-03-07T05:47:38;17.80;;;8.55;;
72406;SDS011;60396;47.550;18.828;2024-03-07T05:50:06;17.17;;;8.05;;
72406;SDS011;60396;47.550;18.828;2024-03-07T05:52:38;14.93;;;8.10;;
72406;SDS011;60396;47.550;18.828;2024-03-07T05:55:05;17.85;;;8.57;;
72406;SDS011;60396;47.550;18.828;2024-03-07T05:57:34;19.10;;;8.82;;
72406;SDS011;60396;47.550;18.828;2024-03-07T06:00:02;20.25;;;8.93;;
72406;SDS011;60396;47.550;18.828;2024-03-07T06:02:39;18.52;;;8.85;;
72406;SDS011;60396;47.550;18.828;2024-03-07T06:05:07;18.17;;;9.50;;
72406;SDS011;60396;47.550;18.828;2024-03-07T06:07:43;18.95;;;9.57;;
72406;SDS011;60396;47.550;18.828;2024-03-07T06:10:14;20.50;;;9.65;;
72406;SDS011;60396;47.550;18.828;2024-03-07T06:12:44;20.40;;;10.23;;
72406;SDS011;60396;47.550;18.828;2024-03-07T06:15:31;20.30;;;9.90;;
72406;SDS011;60396;47.550;18.828;2024-03-07T06:17:59;18.30;;;9.83;;
72406;SDS011;60396;47.550;18.828;2024-03-07T06:20:27;22.70;;;12.07;;
72406;SDS011;60396;47.550;18.828;2024-03-07T06:22:55;22.05;;;11.20;;
72406;SDS011;60396;47.550;18.828;2024-03-07T06:25:24;21.42;;;10.82;;
72406;SDS011;60396;47.550;18.828;2024-03-07T06:28:04;21.33;;;11.07;;
72406;SDS011;60396;47.550;18.828;2024-03-07T06:30:40;21.63;;;10.73;;
72406;SDS011;60396;47.550;18.828;2024-03-07T06:33:10;19.40;;;9.30;;
72406;SDS011;60396;47.550;18.828;2024-03-07T06:35:39;21.52;;;9.77;;
72406;SDS011;60396;47.550;18.828;2024-03-07T06:38:08;22.10;;;10.65;;
72406;SDS011;60396;47.550;18.828;2024-03-07T06:40:36;20.10;;;9.98;;
72406;SDS011;60396;47.550;18.828;2024-03-07T06:43:05;16.80;;;9.33;;
72406;SDS011;60396;47.550;18.828;2024-03-07T06:45:34;17.55;;;9.40;;
72406;SDS011;60396;47.550;18.828;2024-03-07T06:48:04;21.23;;;10.57;;
72406;SDS011;60396;47.550;18.828;2024-03-07T06:50:34;20.67;;;8.68;;
72406;SDS011;60396;47.550;18.828;2024-03-07T06:53:06;19.92;;;9.82;;
72406;SDS011;60396;47.550;18.828;2024-03-07T06:55:35;21.63;;;10.17;;
72406;SDS011;60396;47.550;18.828;2024-03-07T06:58:03;21.12;;;9.68;;
72406;SDS011;60396;47.550;18.828;2024-03-07T07:00:32;19.20;;;9.20;;
72406;SDS011;60396;47.550;18.828;2024-03-07T07:03:03;19.60;;;9.15;;
72406;SDS011;60396;47.550;18.828;2024-03-07T07:05:31;22.23;;;9.35;;
72406;SDS011;60396;47.550;18.828;2024-03-07T07:07:59;18.50;;;9.20;;
72406;SDS011;60396;47.550;18.828;2024-03-07T07:10:28;15.52;;;8.25;;
72406;SDS011;60396;47.550;18.828;2024-03-07T07:12:57;17.27;;;8.85;;
72406;SDS011;60396;47.550;18.828;2024-03-07T07:15:25;18.77;;;8.25;;
72406;SDS011;60396;47.550;18.828;2024-03-07T07:17:52;17.35;;;8.38;;
72406;SDS011;60396;47.550;18.828;2024-03-07T07:20:20;17.07;;;8.53;;
72406;SDS011;60396;47.550;18.828;2024-03-07T07:22:51;19.58;;;8.45;;
72406;SDS011;60396;47.550;18.828;2024-03-07T07:25:20;15.52;;;8.13;;
72406;SDS011;60396;47.550;18.828;2024-03-07T07:27:49;17.27;;;7.95;;
72406;SDS011;60396;47.550;18.828;2024-03-07T07:30:20;17.10;;;8.32;;
72406;SDS011;60396;47.550;18.828;2024-03-07T07:32:50;18.30;;;8.43;;
72406;SDS011;60396;47.550;18.828;2024-03-07T07:35:19;19.15;;;8.60;;
72406;SDS011;60396;47.550;18.828;2024-03-07T07:37:48;17.42;;;9.10;;
72406;SDS011;60396;47.550;18.828;2024-03-07T07:40:18;16.33;;;8.52;;
72406;SDS011;60396;47.550;18.828;2024-03-07T07:42:47;18.83;;;8.32;;
72406;SDS011;60396;47.550;18.828;2024-03-07T07:45:16;18.60;;;8.10;;
72406;SDS011;60396;47.550;18.828;2024-03-07T07:47:46;15.05;;;7.60;;
72406;SDS011;60396;47.550;18.828;2024-03-07T07:50:17;15.75;;;8.23;;
72406;SDS011;60396;47.550;18.828;2024-03-07T07:52:53;16.67;;;7.72;;
72406;SDS011;60396;47.550;18.828;2024-03-07T07:55:25;14.85;;;7.62;;
72406;SDS011;60396;47.550;18.828;2024-03-07T07:57:57;14.53;;;6.90;;
72406;SDS011;60396;47.550;18.828;2024-03-07T08:00:26;13.73;;;6.82;;
72406;SDS011;60396;47.550;18.828;2024-03-07T08:03:04;9.50;;;4.57;;
72406;SDS011;60396;47.550;18.828;2024-03-07T08:05:37;7.53;;;3.20;;
72406;SDS011;60396;47.550;18.828;2024-03-07T08:08:08;5.93;;;2.28;;
72406;SDS011;60396;47.550;18.828;2024-03-07T08:10:39;6.10;;;2.33;;
72406;SDS011;60396;47.550;18.828;2024-03-07T08:13:13;5.75;;;2.10;;
72406;SDS011;60396;47.550;18.828;2024-03-07T08:15:42;6.72;;;2.47;;
72406;SDS011;60396;47.550;18.828;2024-03-07T08:18:10;8.85;;;3.72;;
72406;SDS011;60396;47.550;18.828;2024-03-07T08:20:39;10.15;;;4.70;;
72406;SDS011;60396;47.550;18.828;2024-03-07T08:23:09;7.87;;;3.33;;
72406;SDS011;60396;47.550;18.828;2024-03-07T08:25:38;8.73;;;2.67;;
72406;SDS011;60396;47.550;18.828;2024-03-07T08:28:09;6.43;;;2.40;;
72406;SDS011;60396;47.550;18.828;2024-03-07T08:30:37;6.53;;;2.28;;
72406;SDS011;60396;47.550;18.828;2024-03-07T08:33:04;11.63;;;2.62;;
72406;SDS011;60396;47.550;18.828;2024-03-07T08:35:34;9.17;;;2.10;;
72406;SDS011;60396;47.550;18.828;2024-03-07T08:38:02;7.50;;;2.37;;
72406;SDS011;60396;47.550;18.828;2024-03-07T08:40:30;7.72;;;2.30;;
72406;SDS011;60396;47.550;18.828;2024-03-07T08:43:00;5.90;;;2.10;;
72406;SDS011;60396;47.550;18.828;2024-03-07T08:45:28;6.82;;;2.45;;
72406;SDS011;60396;47.550;18.828;2024-03-07T08:47:57;6.17;;;2.37;;
72406;SDS011;60396;47.550;18.828;2024-03-07T08:50:27;7.15;;;2.50;;
72406;SDS011;60396;47.550;18.828;2024-03-07T08:52:55;6.62;;;2.50;;
72406;SDS011;60396;47.550;18.828;2024-03-07T08:55:23;6.28;;;2.42;;
72406;SDS011;60396;47.550;18.828;2024-03-07T08:57:53;8.32;;;2.67;;
72406;SDS011;60396;47.550;18.828;2024-03-07T09:00:21;6.93;;;2.57;;
72406;SDS011;60396;47.550;18.828;2024-03-07T09:02:55;6.12;;;2.28;;
72406;SDS011;60396;47.550;18.828;2024-03-07T09:05:29;6.82;;;2.45;;
72406;SDS011;60396;47.550;18.828;2024-03-07T09:08:01;6.57;;;2.35;;
72406;SDS011;60396;47.550;18.828;2024-03-07T09:10:30;6.60;;;2.60;;
72406;SDS011;60396;47.550;18.828;2024-03-07T09:12:58;6.33;;;2.30;;
72406;SDS011;60396;47.550;18.828;2024-03-07T09:15:27;6.20;;;2.33;;
72406;SDS011;60396;47.550;18.828;2024-03-07T09:17:55;7.43;;;2.30;;
72406;SDS011;60396;47.550;18.828;2024-03-07T09:20:23;6.10;;;2.60;;
72406;SDS011;60396;47.550;18.828;2024-03-07T09:22:52;6.50;;;2.20;;
72406;SDS011;60396;47.550;18.828;2024-03-07T09:25:23;6.30;;;2.10;;
72406;SDS011;60396;47.550;18.828;2024-03-07T09:27:53;8.30;;;2.42;;
72406;SDS011;60396;47.550;18.828;2024-03-07T09:30:22;6.82;;;2.50;;
72406;SDS011;60396;47.550;18.828;2024-03-07T09:32:54;6.80;;;2.70;;
72406;SDS011;60396;47.550;18.828;2024-03-07T09:35:23;8.02;;;2.85;;
72406;SDS011;60396;47.550;18.828;2024-03-07T09:37:51;6.20;;;2.50;;
72406;SDS011;60396;47.550;18.828;2024-03-07T09:40:18;6.28;;;2.45;;
72406;SDS011;60396;47.550;18.828;2024-03-07T09:42:52;6.22;;;2.20;;
72406;SDS011;60396;47.550;18.828;2024-03-07T09:45:23;6.35;;;2.50;;
72406;SDS011;60396;47.550;18.828;2024-03-07T09:47:57;7.60;;;2.95;;
72406;SDS011;60396;47.550;18.828;2024-03-07T09:50:25;5.90;;;2.50;;
72406;SDS011;60396;47.550;18.828;2024-03-07T09:52:55;6.50;;;2.28;;
72406;SDS011;60396;47.550;18.828;2024-03-07T09:55:23;7.47;;;3.03;;
72406;SDS011;60396;47.550;18.828;2024-03-07T09:57:54;10.05;;;2.90;;
72406;SDS011;60396;47.550;18.828;2024-03-07T10:00:25;6.68;;;2.50;;
72406;SDS011;60396;47.550;18.828;2024-03-07T10:03:03;6.80;;;2.47;;
72406;SDS011;60396;47.550;18.828;2024-03-07T10:05:34;6.78;;;2.22;;
72406;SDS011;60396;47.550;18.828;2024-03-07T10:08:02;5.93;;;2.47;;
72406;SDS011;60396;47.550;18.828;2024-03-07T10:10:30;5.68;;;2.12;;
72406;SDS011;60396;47.550;18.828;2024-03-07T10:12:59;6.03;;;2.37;;
72406;SDS011;60396;47.550;18.828;2024-03-07T10:15:29;6.67;;;2.77;;
72406;SDS011;60396;47.550;18.828;2024-03-07T10:17:57;5.70;;;2.20;;
72406;SDS011;60396;47.550;18.828;2024-03-07T10:20:26;5.82;;;2.35;;
72406;SDS011;60396;47.550;18.828;2024-03-07T10:22:55;7.03;;;2.70;;
72406;SDS011;60396;47.550;18.828;2024-03-07T10:25:28;6.75;;;3.03;;
72406;SDS011;60396;47.550;18.828;2024-03-07T10:27:57;6.97;;;2.87;;
72406;SDS011;60396;47.550;18.828;2024-03-07T10:30:29;6.35;;;2.85;;
72406;SDS011;60396;47.550;18.828;2024-03-07T10:32:57;7.10;;;2.62;;
72406;SDS011;60396;47.550;18.828;2024-03-07T10:35:29;6.47;;;2.47;;
72406;SDS011;60396;47.550;18.828;2024-03-07T10:37:59;6.95;;;2.87;;
72406;SDS011;60396;47.550;18.828;2024-03-07T10:40:35;6.40;;;2.90;;
72406;SDS011;60396;47.550;18.828;2024-03-07T10:43:05;6.35;;;2.70;;
72406;SDS011;60396;47.550;18.828;2024-03-07T10:45:40;7.50;;;3.10;;
72406;SDS011;60396;47.550;18.828;2024-03-07T10:48:13;5.95;;;2.60;;
72406;SDS011;60396;47.550;18.828;2024-03-07T10:53:40;6.73;;;2.67;;
72406;SDS011;60396;47.550;18.828;2024-03-07T10:56:31;7.18;;;2.92;;
72406;SDS011;60396;47.550;18.828;2024-03-07T11:01:59;8.20;;;3.10;;
72406;SDS011;60396;47.550;18.828;2024-03-07T11:04:34;7.78;;;3.08;;
72406;SDS011;60396;47.550;18.828;2024-03-07T11:07:02;7.67;;;2.77;;
72406;SDS011;60396;47.550;18.828;2024-03-07T11:09:30;9.55;;;3.33;;
72406;SDS011;60396;47.550;18.828;2024-03-07T11:12:01;7.68;;;3.30;;
72406;SDS011;60396;47.550;18.828;2024-03-07T11:14:32;7.00;;;3.03;;
72406;SDS011;60396;47.550;18.828;2024-03-07T11:17:03;6.97;;;3.30;;
72406;SDS011;60396;47.550;18.828;2024-03-07T11:19:31;7.60;;;3.20;;
72406;SDS011;60396;47.550;18.828;2024-03-07T11:22:04;6.75;;;2.95;;
72406;SDS011;60396;47.550;18.828;2024-03-07T11:24:44;10.60;;;3.17;;
72406;SDS011;60396;47.550;18.828;2024-03-07T11:27:38;9.70;;;3.45;;
72406;SDS011;60396;47.550;18.828;2024-03-07T11:30:06;8.30;;;3.67;;
72406;SDS011;60396;47.550;18.828;2024-03-07T11:32:38;8.43;;;3.93;;
72406;SDS011;60396;47.550;18.828;2024-03-07T11:35:12;8.73;;;3.65;;
72406;SDS011;60396;47.550;18.828;2024-03-07T11:37:44;10.45;;;4.12;;
72406;SDS011;60396;47.550;18.828;2024-03-07T11:42:48;8.18;;;3.53;;
72406;SDS011;60396;47.550;18.828;2024-03-07T11:45:17;8.00;;;3.63;;
72406;SDS011;60396;47.550;18.828;2024-03-07T11:47:52;9.73;;;3.97;;
72406;SDS011;60396;47.550;18.828;2024-03-07T11:50:36;9.57;;;4.30;;
72406;SDS011;60396;47.550;18.828;2024-03-07T11:53:08;8.50;;;3.78;;
72406;SDS011;60396;47.550;18.828;2024-03-07T11:55:37;8.25;;;3.87;;
72406;SDS011;60396;47.550;18.828;2024-03-07T11:58:26;9.50;;;4.00;;
72406;SDS011;60396;47.550;18.828;2024-03-07T12:00:53;8.35;;;3.95;;
72406;SDS011;60396;47.550;18.828;2024-03-07T12:03:21;8.68;;;4.25;;
72406;SDS011;60396;47.550;18.828;2024-03-07T12:05:50;9.23;;;3.70;;
72406;SDS011;60396;47.550;18.828;2024-03-07T12:08:22;9.48;;;4.25;;
72406;SDS011;60396;47.550;18.828;2024-03-07T12:10:52;8.43;;;4.00;;
72406;SDS011;60396;47.550;18.828;2024-03-07T12:13:26;11.43;;;4.62;;
72406;SDS011;60396;47.550;18.828;2024-03-07T12:15:55;15.98;;;4.43;;
72406;SDS011;60396;47.550;18.828;2024-03-07T12:18:26;10.05;;;4.35;;
72406;SDS011;60396;47.550;18.828;2024-03-07T12:20:54;11.30;;;4.70;;
72406;SDS011;60396;47.550;18.828;2024-03-07T12:23:24;8.90;;;3.53;;
72406;SDS011;60396;47.550;18.828;2024-03-07T12:26:00;9.15;;;3.90;;
72406;SDS011;60396;47.550;18.828;2024-03-07T12:28:29;8.15;;;3.78;;
72406;SDS011;60396;47.550;18.828;2024-03-07T12:31:02;7.78;;;3.58;;
72406;SDS011;60396;47.550;18.828;2024-03-07T12:33:31;8.98;;;4.03;;
72406;SDS011;60396;47.550;18.828;2024-03-07T12:36:01;9.97;;;4.30;;
72406;SDS011;60396;47.550;18.828;2024-03-07T12:38:36;8.63;;;4.18;;
72406;SDS011;60396;47.550;18.828;2024-03-07T12:41:05;10.32;;;4.12;;
72406;SDS011;60396;47.550;18.828;2024-03-07T12:43:45;8.73;;;4.15;;
72406;SDS011;60396;47.550;18.828;2024-03-07T12:46:13;9.55;;;4.05;;
72406;SDS011;60396;47.550;18.828;2024-03-07T12:48:43;11.40;;;4.20;;
72406;SDS011;60396;47.550;18.828;2024-03-07T12:51:15;9.45;;;4.62;;
72406;SDS011;60396;47.550;18.828;2024-03-07T12:53:51;8.63;;;4.40;;
72406;SDS011;60396;47.550;18.828;2024-03-07T12:56:19;8.63;;;4.05;;
72406;SDS011;60396;47.550;18.828;2024-03-07T12:58:47;9.02;;;3.95;;
72406;SDS011;60396;47.550;18.828;2024-03-07T13:01:17;9.27;;;4.43;;
72406;SDS011;60396;47.550;18.828;2024-03-07T13:03:47;10.88;;;4.70;;
72406;SDS011;60396;47.550;18.828;2024-03-07T13:06:15;8.45;;;4.05;;
72406;SDS011;60396;47.550;18.828;2024-03-07T13:08:47;10.35;;;4.80;;
72406;SDS011;60396;47.550;18.828;2024-03-07T13:11:15;10.27;;;5.03;;
72406;SDS011;60396;47.550;18.828;2024-03-07T13:13:43;10.97;;;4.80;;
72406;SDS011;60396;47.550;18.828;2024-03-07T13:16:11;9.07;;;3.95;;
72406;SDS011;60396;47.550;18.828;2024-03-07T13:18:39;9.07;;;4.18;;
72406;SDS011;60396;47.550;18.828;2024-03-07T13:21:07;9.43;;;4.53;;
72406;SDS011;60396;47.550;18.828;2024-03-07T13:23:38;9.68;;;4.78;;
72406;SDS011;60396;47.550;18.828;2024-03-07T13:26:07;8.23;;;3.63;;
72406;SDS011;60396;47.550;18.828;2024-03-07T13:28:44;9.13;;;4.28;;
72406;SDS011;60396;47.550;18.828;2024-03-07T13:31:12;11.45;;;4.60;;
72406;SDS011;60396;47.550;18.828;2024-03-07T13:33:40;12.40;;;5.37;;
72406;SDS011;60396;47.550;18.828;2024-03-07T13:36:09;10.88;;;5.20;;
72406;SDS011;60396;47.550;18.828;2024-03-07T13:38:37;10.00;;;4.30;;
72406;SDS011;60396;47.550;18.828;2024-03-07T13:41:06;13.13;;;5.57;;
72406;SDS011;60396;47.550;18.828;2024-03-07T13:43:34;13.98;;;5.10;;
72406;SDS011;60396;47.550;18.828;2024-03-07T13:46:02;10.60;;;4.93;;
72406;SDS011;60396;47.550;18.828;2024-03-07T13:48:30;10.25;;;4.80;;
72406;SDS011;60396;47.550;18.828;2024-03-07T13:51:00;10.70;;;4.50;;
72406;SDS011;60396;47.550;18.828;2024-03-07T13:53:28;9.73;;;4.50;;
72406;SDS011;60396;47.550;18.828;2024-03-07T14:07:33;9.90;;;4.25;;
72406;SDS011;60396;47.550;18.828;2024-03-07T14:13:39;13.68;;;5.07;;
72406;SDS011;60396;47.550;18.828;2024-03-07T14:30:56;10.82;;;4.75;;
72406;SDS011;60396;47.550;18.828;2024-03-07T14:33:26;9.87;;;4.27;;
72406;SDS011;60396;47.550;18.828;2024-03-07T14:36:05;9.05;;;4.18;;
72406;SDS011;60396;47.550;18.828;2024-03-07T14:38:51;9.50;;;4.30;;
72406;SDS011;60396;47.550;18.828;2024-03-07T14:41:40;10.90;;;4.10;;
72406;SDS011;60396;47.550;18.828;2024-03-07T14:44:28;8.70;;;4.22;;
72406;SDS011;60396;47.550;18.828;2024-03-07T14:46:58;8.97;;;4.23;;
72406;SDS011;60396;47.550;18.828;2024-03-07T14:49:28;10.55;;;4.70;;
72406;SDS011;60396;47.550;18.828;2024-03-07T14:51:56;9.50;;;4.30;;
72406;SDS011;60396;47.550;18.828;2024-03-07T14:54:28;12.30;;;4.68;;
72406;SDS011;60396;47.550;18.828;2024-03-07T14:56:56;10.65;;;4.87;;
72406;SDS011;60396;47.550;18.828;2024-03-07T14:59:24;10.57;;;4.23;;
72406;SDS011;60396;47.550;18.828;2024-03-07T15:01:53;11.35;;;4.18;;
72406;SDS011;60396;47.550;18.828;2024-03-07T15:04:21;10.98;;;4.95;;
72406;SDS011;60396;47.550;18.828;2024-03-07T15:06:50;12.05;;;4.82;;
72406;SDS011;60396;47.550;18.828;2024-03-07T15:09:20;10.88;;;5.22;;
72406;SDS011;60396;47.550;18.828;2024-03-07T15:11:48;10.17;;;4.57;;
72406;SDS011;60396;47.550;18.828;2024-03-07T15:14:16;10.30;;;5.30;;
72406;SDS011;60396;47.550;18.828;2024-03-07T15:16:56;10.07;;;4.70;;
72406;SDS011;60396;47.550;18.828;2024-03-07T15:19:24;11.40;;;4.45;;